createdAt,value
2023-05-10T00:02:15.660Z,96296.25
2023-05-10T00:07:20.776Z,96293.81
2023-05-10T00:12:23.768Z,96293.28
2023-05-10T00:17:28.060Z,96288.66
2023-05-10T00:22:32.299Z,96286.25
2023-05-10T00:27:35.212Z,96284.66
2023-05-10T00:32:38.405Z,96279.22
2023-05-10T00:37:42.685Z,96281.09
2023-05-10T00:42:45.741Z,96268.66
2023-05-10T00:47:48.691Z,96261.31
2023-05-10T00:52:54.983Z,96250.78
2023-05-10T00:57:57.869Z,96266.22
2023-05-10T01:03:00.939Z,96267.81
2023-05-10T01:08:05.662Z,96268.94
2023-05-10T01:13:08.603Z,96272.72
2023-05-10T01:18:11.610Z,96275.44
2023-05-10T01:23:47.358Z,96272.19
2023-05-10T01:29:14.604Z,96271.66
2023-05-10T01:34:21.458Z,96274.09
2023-05-10T01:39:28.075Z,96280.63
2023-05-10T01:44:36.028Z,96283.59
2023-05-10T01:49:44.494Z,96290.91
2023-05-10T01:54:52.437Z,96293.63
2023-05-10T01:59:57.697Z,96305.28
2023-05-10T02:05:01.940Z,96303.09
2023-05-10T02:10:06.955Z,96306.63
2023-05-10T02:15:11.571Z,96306.88
2023-05-10T02:20:16.784Z,96309.88
2023-05-10T02:25:21.158Z,96308.78
2023-05-10T02:30:25.070Z,96314.50
2023-05-10T02:35:29.556Z,96307.97
2023-05-10T02:40:32.615Z,96316.38
2023-05-10T02:45:36.841Z,96321.56
2023-05-10T02:50:43.984Z,96325.59
2023-05-10T02:55:48.639Z,96328.31
2023-05-10T03:00:51.595Z,96331.03
2023-05-10T03:05:56.874Z,96323.41
2023-05-10T03:11:11.497Z,96320.97
2023-05-10T03:16:18.073Z,96311.44
2023-05-10T03:21:27.114Z,96307.69
2023-05-10T03:26:31.765Z,96305.00
2023-05-10T03:31:35.073Z,96309.31
2023-05-10T03:36:39.833Z,96302.00
2023-05-10T03:41:46.144Z,96297.66
2023-05-10T03:46:49.079Z,96299.81
2023-05-10T03:51:53.654Z,96307.69
2023-05-10T03:56:56.451Z,96311.44
2023-05-10T04:01:59.665Z,96303.31
2023-05-10T04:07:03.853Z,96297.38
2023-05-10T04:12:09.453Z,96308.75
2023-05-10T04:17:13.738Z,96307.97
2023-05-10T04:22:18.615Z,96298.78
2023-05-10T04:27:21.918Z,96300.16
2023-05-10T04:32:24.923Z,96288.22
2023-05-10T04:37:29.112Z,96278.78
2023-05-10T04:42:31.977Z,96311.31
2023-05-10T04:47:35.724Z,96305.91
2023-05-10T04:52:39.883Z,96303.47
2023-05-10T04:57:42.719Z,96294.84
2023-05-10T05:02:46.552Z,96308.38
2023-05-10T05:07:52.702Z,96295.88
2023-05-10T05:12:55.778Z,96293.47
2023-05-10T05:17:58.713Z,96308.66
2023-05-10T05:23:03.501Z,96310.00
2023-05-10T05:28:07.563Z,96318.41
2023-05-10T05:33:11.916Z,96311.38
2023-05-10T05:38:16.788Z,96316.78
2023-05-10T05:43:19.695Z,96326.25
2023-05-10T05:48:22.569Z,96321.63
2023-05-10T05:53:26.748Z,96326.25
2023-05-10T05:58:29.641Z,96328.97
2023-05-10T06:03:32.539Z,96323.28
2023-05-10T06:08:36.804Z,96335.72
2023-05-10T06:13:40.530Z,96345.75
2023-05-10T06:18:43.469Z,96338.13
2023-05-10T06:23:47.667Z,96341.69
2023-05-10T06:28:50.617Z,96353.84
2023-05-10T06:33:55.338Z,96349.50
2023-05-10T06:39:00.858Z,96348.69
2023-05-10T06:44:04.614Z,96348.97
2023-05-10T06:49:07.616Z,96365.78
2023-05-10T06:54:11.751Z,96357.66
2023-05-10T06:59:16.929Z,96368.75
2023-05-10T07:04:20.285Z,96368.47
2023-05-10T07:09:25.393Z,96366.56
2023-05-10T07:14:28.238Z,96370.09
2023-05-10T07:19:33.478Z,96381.47
2023-05-10T07:24:37.975Z,96374.69
2023-05-10T07:29:41.038Z,96386.59
2023-05-10T07:34:43.950Z,96387.38
2023-05-10T07:39:48.239Z,96382.78
2023-05-10T07:44:51.126Z,96387.38
2023-05-10T07:49:53.934Z,96383.03
2023-05-10T07:54:58.274Z,96389.56
2023-05-10T08:00:01.345Z,96385.22
2023-05-10T08:05:05.214Z,96389.81
2023-05-10T08:10:11.998Z,96389.03
2023-05-10T08:15:14.961Z,96386.00
2023-05-10T08:20:19.982Z,96387.94
2023-05-10T08:25:24.262Z,96376.00
2023-05-10T08:30:27.216Z,96374.09
2023-05-10T08:35:30.993Z,96380.06
2023-05-10T08:40:36.942Z,96386.81
2023-05-10T08:45:41.775Z,96400.38
2023-05-10T08:50:44.930Z,96404.72
2023-05-10T08:55:49.623Z,96409.84
2023-05-10T09:00:53.439Z,96416.38
2023-05-10T09:05:57.072Z,96413.13
2023-05-10T09:11:02.436Z,96419.38
2023-05-10T09:16:13.937Z,96427.19
2023-05-10T09:21:24.510Z,96431.00
2023-05-10T09:26:29.226Z,96431.81
2023-05-10T09:31:48.989Z,96422.06
2023-05-10T09:36:57.342Z,96428.59
2023-05-10T09:42:04.765Z,96423.41
2023-05-10T09:47:07.707Z,96425.56
2023-05-10T09:52:10.810Z,96432.34
2023-05-10T09:57:21.971Z,96425.81
2023-05-10T10:02:31.063Z,96418.78
2023-05-10T10:07:34.495Z,96418.78
2023-05-10T10:12:39.168Z,96417.69
2023-05-10T10:17:43.199Z,96426.38
2023-05-10T10:22:46.762Z,96426.09
2023-05-10T10:28:00.436Z,96431.22
2023-05-10T10:33:28.506Z,96425.25
2023-05-10T10:38:40.776Z,96437.44
2023-05-10T10:43:46.441Z,96438.78
2023-05-10T10:48:52.405Z,96440.13
2023-05-10T10:53:56.081Z,96445.81
2023-05-10T10:59:02.644Z,96439.03
2023-05-10T11:04:21.788Z,96433.59
2023-05-10T11:09:26.729Z,96434.38
2023-05-10T11:14:34.041Z,96443.09
2023-05-10T11:19:39.952Z,96436.31
2023-05-10T11:24:59.103Z,96430.56
2023-05-10T11:30:04.999Z,96425.97
2023-05-10T11:35:09.563Z,96424.34
2023-05-10T11:40:13.721Z,96431.41
2023-05-10T11:45:18.120Z,96430.03
2023-05-10T11:50:20.995Z,96442.50
2023-05-10T11:55:25.136Z,96444.38
2023-05-10T12:00:29.754Z,96445.19
2023-05-10T12:05:34.391Z,96440.28
2023-05-10T12:10:37.470Z,96446.25
2023-05-10T12:15:41.995Z,96452.47
2023-05-10T12:20:44.823Z,96453.03
2023-05-10T12:25:47.781Z,96455.72
2023-05-10T12:30:55.315Z,96465.22
2023-05-10T12:36:01.416Z,96454.59
2023-05-10T12:41:06.071Z,96459.22
2023-05-10T12:46:11.372Z,96455.41
2023-05-10T12:51:16.700Z,96440.19
2023-05-10T12:56:19.842Z,96437.69
2023-05-10T13:01:24.858Z,96432.50
2023-05-10T13:06:27.817Z,96441.75
2023-05-10T13:11:30.790Z,96434.41
2023-05-10T13:16:36.207Z,96443.34
2023-05-10T13:21:39.277Z,96436.31
2023-05-10T13:26:42.380Z,96449.91
2023-05-10T13:31:46.758Z,96455.91
2023-05-10T13:36:50.168Z,96459.16
2023-05-10T13:41:53.890Z,96460.25
2023-05-10T13:46:58.944Z,96451.00
2023-05-10T13:52:06.853Z,96450.44
2023-05-10T13:57:09.888Z,96446.06
2023-05-10T14:02:14.255Z,96441.16
2023-05-10T14:07:17.142Z,96438.41
2023-05-10T14:12:20.851Z,96433.97
2023-05-10T14:17:25.385Z,96423.19
2023-05-10T14:22:28.303Z,96428.19
2023-05-10T14:27:31.343Z,96414.47
2023-05-10T14:32:37.575Z,96410.91
2023-05-10T14:37:40.736Z,96406.53
2023-05-10T14:42:44.190Z,96405.97
2023-05-10T14:47:49.137Z,96403.53
2023-05-10T14:52:52.565Z,96406.16
2023-05-10T14:57:55.451Z,96399.31
2023-05-10T15:02:59.657Z,96393.41
2023-05-10T15:08:03.055Z,96395.69
2023-05-10T15:13:06.139Z,96399.56
2023-05-10T15:18:10.565Z,96404.03
2023-05-10T15:23:13.477Z,96389.66
2023-05-10T15:28:16.281Z,96401.88
2023-05-10T15:38:23.507Z,96395.91
2023-05-10T15:43:26.455Z,96393.25
2023-05-10T15:48:32.241Z,96397.78
2023-05-10T15:53:36.034Z,96404.19
2023-05-10T15:58:39.491Z,96408.66
2023-05-10T16:03:44.843Z,96408.94
2023-05-10T16:08:47.673Z,96407.84
2023-05-10T16:13:50.511Z,96408.75
2023-05-10T16:18:54.775Z,96419.75
2023-05-10T16:23:57.745Z,96422.00
2023-05-10T16:29:00.673Z,96419.19
2023-05-10T16:34:04.845Z,96422.47
2023-05-10T16:39:09.282Z,96413.91
2023-05-10T16:44:12.123Z,96411.78
2023-05-10T16:49:16.537Z,96415.34
2023-05-10T16:54:20.239Z,96407.19
2023-05-10T16:59:23.072Z,96405.25
2023-05-10T17:04:27.328Z,96400.91
2023-05-10T17:09:30.127Z,96411.97
2023-05-10T17:14:32.915Z,96411.44
2023-05-10T17:19:37.132Z,96407.00
2023-05-10T17:24:39.983Z,96398.22
2023-05-10T17:29:42.967Z,96398.75
2023-05-10T17:34:47.396Z,96413.06
2023-05-10T17:39:50.804Z,96412.06
2023-05-10T17:44:53.651Z,96409.53
2023-05-10T17:49:57.790Z,96408.34
2023-05-10T17:55:01.166Z,96406.09
2023-05-10T18:00:06.272Z,96399.66
2023-05-10T18:05:12.074Z,96404.66
2023-05-10T18:10:16.128Z,96412.63
2023-05-10T18:15:19.239Z,96398.88
2023-05-10T18:20:23.659Z,96409.78
2023-05-10T18:25:26.600Z,96407.69
2023-05-10T18:30:29.410Z,96414.00
2023-05-10T18:35:35.280Z,96408.63
2023-05-10T18:40:38.119Z,96402.72
2023-05-10T18:45:41.649Z,96404.88
2023-05-10T18:50:45.855Z,96403.03
2023-05-10T18:55:56.911Z,96406.38
2023-05-10T19:00:59.708Z,96408.53
2023-05-10T19:06:03.937Z,96400.16
2023-05-10T19:11:06.810Z,96406.13
2023-05-10T19:16:14.287Z,96404.56
2023-05-10T19:21:18.801Z,96393.44
2023-05-10T19:26:23.292Z,96401.88
2023-05-10T19:31:26.180Z,96403.25
2023-05-10T19:36:31.135Z,96407.34
2023-05-10T19:41:34.001Z,96419.84
2023-05-10T19:46:36.897Z,96419.59
2023-05-10T19:51:41.326Z,96423.97
2023-05-10T19:56:44.481Z,96437.53
2023-05-10T20:01:47.319Z,96425.34
2023-05-10T20:06:51.529Z,96427.28
2023-05-10T20:11:54.339Z,96433.50
2023-05-10T20:16:57.211Z,96434.91
2023-05-10T20:22:01.424Z,96427.31
2023-05-10T20:27:05.206Z,96431.41
2023-05-10T20:32:08.118Z,96445.78
2023-05-10T20:37:13.286Z,96445.53
2023-05-10T20:42:16.607Z,96445.81
2023-05-10T20:47:19.549Z,96442.56
2023-05-10T20:52:25.167Z,96435.50
2023-05-10T20:57:27.943Z,96445.00
2023-05-10T21:02:30.764Z,96451.81
2023-05-10T21:07:35.025Z,96445.03
2023-05-10T21:12:38.103Z,96436.09
2023-05-10T21:17:40.912Z,96442.06
2023-05-10T21:22:45.137Z,96432.31
2023-05-10T21:27:48.279Z,96433.16
2023-05-10T21:32:51.147Z,96430.97
2023-05-10T21:37:55.806Z,96432.06
2023-05-10T21:42:58.576Z,96417.69
2023-05-10T21:48:01.711Z,96407.16
2023-05-10T21:53:05.928Z,96402.00
2023-05-10T21:58:08.760Z,96397.66
2023-05-10T22:03:13.188Z,96406.91
2023-05-10T22:08:17.460Z,96399.81
2023-05-10T22:13:20.340Z,96400.91
2023-05-10T22:18:23.237Z,96400.38
2023-05-10T22:23:27.532Z,96404.97
2023-05-10T22:28:30.687Z,96400.66
2023-05-10T22:33:33.483Z,96403.63
2023-05-10T22:38:37.718Z,96402.28
2023-05-10T22:43:40.510Z,96406.91
2023-05-10T22:48:44.132Z,96408.81
2023-05-10T22:53:48.361Z,96407.47
2023-05-10T22:58:52.109Z,96405.00
2023-05-10T23:03:54.915Z,96412.09
2023-05-10T23:08:59.071Z,96405.84
2023-05-10T23:14:01.898Z,96402.31
2023-05-10T23:19:04.756Z,96402.88
2023-05-10T23:24:09.153Z,96401.25
2023-05-10T23:29:12.257Z,96399.34
2023-05-10T23:34:15.731Z,96391.78
2023-05-10T23:39:19.914Z,96388.25
2023-05-10T23:44:22.760Z,96385.81
2023-05-10T23:49:25.559Z,96378.78
2023-05-10T23:54:29.788Z,96378.78
2023-05-10T23:59:32.902Z,96380.13
